Time,TemperatureF,DewpointF,PressureIn,WindDirection,WindDirectionDegrees,WindSpeedMPH,WindSpeedGustMPH,Humidity,HourlyPrecipIn,Conditions,Clouds,dailyrainin,SoftwareType,DateUTC
2013-04-12 00:03:00,56.0,50.0,29.60,SSE,168,8.0,-999.0,80,-99.99,,,-99.99,,2013-04-12 04:03:00,
2013-04-12 00:13:00,56.0,50.0,29.60,SSE,168,8.0,-999.0,80,-99.99,,,-99.99,,2013-04-12 04:13:00,
2013-04-12 00:23:00,55.0,50.0,29.59,South,169,8.0,-999.0,82,-99.99,,,-99.99,,2013-04-12 04:23:00,
2013-04-12 00:33:00,55.0,50.0,29.59,SSE,164,7.0,-999.0,82,-99.99,,,-99.99,,2013-04-12 04:33:00,
2013-04-12 00:43:00,55.0,50.0,29.59,SSE,164,7.0,-999.0,82,-99.99,,,-99.99,,2013-04-12 04:43:00,
2013-04-12 00:52:00,55.0,51.0,29.59,SSE,161,7.0,-999.0,85,-99.99,,,-99.99,,2013-04-12 04:52:00,
2013-04-12 01:03:00,55.0,51.0,29.59,South,181,8.0,-999.0,85,-99.99,,,-99.99,,2013-04-12 05:03:00,
2013-04-12 01:12:00,55.0,51.0,29.59,South,181,8.0,-999.0,85,-99.99,,,-99.99,,2013-04-12 05:12:00,
2013-04-12 01:23:00,55.0,51.0,29.58,SSW,204,8.0,-999.0,87,-99.99,,,-99.99,,2013-04-12 05:23:00,
2013-04-12 01:32:00,55.0,52.0,29.57,SE,145,6.0,-999.0,89,-99.99,,,-99.99,,2013-04-12 05:32:00,
2013-04-12 01:42:00,55.0,52.0,29.57,SE,145,6.0,-999.0,89,-99.99,,,-99.99,,2013-04-12 05:42:00,
2013-04-12 01:52:00,54.0,51.0,29.57,SSE,163,6.0,-999.0,89,-99.99,,,-99.99,,2013-04-12 05:52:00,
2013-04-12 02:02:00,53.0,46.0,29.56,SSE,154,8.0,-999.0,76,-99.99,,,-99.99,,2013-04-12 06:02:00,
2013-04-12 02:12:00,53.0,46.0,29.56,SSE,154,8.0,-999.0,76,-99.99,,,-99.99,,2013-04-12 06:12:00,
2013-04-12 02:22:00,53.0,43.0,29.55,South,187,8.0,-999.0,69,-99.99,,,-99.99,,2013-04-12 06:22:00,
2013-04-12 02:32:00,54.0,43.0,29.53,SW,224,11.0,-999.0,66,-99.99,,,-99.99,,2013-04-12 06:32:00,
2013-04-12 02:42:00,54.0,43.0,29.53,SW,224,11.0,-999.0,66,-99.99,,,-99.99,,2013-04-12 06:42:00,
2013-04-12 02:52:00,54.0,43.0,29.52,SSW,192,10.0,-999.0,65,-99.99,,,-99.99,,2013-04-12 06:52:00,
2013-04-12 03:02:00,54.0,42.0,29.52,South,183,9.0,-999.0,64,-99.99,,,-99.99,,2013-04-12 07:02:00,
2013-04-12 03:12:00,54.0,42.0,29.52,South,183,9.0,-999.0,64,-99.99,,,-99.99,,2013-04-12 07:12:00,
2013-04-12 03:22:00,54.0,42.0,29.50,SSW,192,8.0,-999.0,63,-99.99,,,-99.99,,2013-04-12 07:22:00,
2013-04-12 03:32:00,54.0,42.0,29.49,SW,214,12.0,-999.0,63,-99.99,,,-99.99,,2013-04-12 07:32:00,
2013-04-12 03:42:00,54.0,42.0,29.49,SW,214,12.0,-999.0,63,-99.99,,,-99.99,,2013-04-12 07:42:00,
2013-04-12 03:52:00,53.0,41.0,29.49,SSW,212,11.0,-999.0,64,-99.99,,,-99.99,,2013-04-12 07:52:00,
2013-04-12 04:03:00,52.0,40.0,29.49,SSW,203,15.0,-999.0,64,-99.99,,,-99.99,,2013-04-12 08:03:00,
2013-04-12 04:12:00,52.0,40.0,29.49,SSW,203,15.0,-999.0,64,-99.99,,,-99.99,,2013-04-12 08:12:00,
2013-04-12 04:22:00,51.0,40.0,29.50,WSW,244,17.0,-999.0,66,-99.99,,,-99.99,,2013-04-12 08:22:00,
2013-04-12 04:32:00,50.0,39.0,29.50,SW,225,16.0,-999.0,67,-99.99,,,-99.99,,2013-04-12 08:32:00,
2013-04-12 04:42:00,50.0,39.0,29.50,SW,225,16.0,-999.0,67,-99.99,,,-99.99,,2013-04-12 08:42:00,
2013-04-12 04:52:00,50.0,39.0,29.51,WSW,256,13.0,-999.0,66,-99.99,,,-99.99,,2013-04-12 08:52:00,
2013-04-12 05:02:00,50.0,39.0,29.52,SSW,212,12.0,-999.0,66,-99.99,,,-99.99,,2013-04-12 09:02:00,
2013-04-12 05:12:00,50.0,39.0,29.52,SSW,212,12.0,-999.0,66,-99.99,,,-99.99,,2013-04-12 09:12:00,
2013-04-12 05:22:00,49.0,39.0,29.52,SW,234,14.0,-999.0,69,-99.99,,,-99.99,,2013-04-12 09:22:00,
2013-04-12 05:33:00,49.0,41.0,29.51,SSW,209,14.0,-999.0,73,-99.99,,,-99.99,,2013-04-12 09:33:00,
2013-04-12 05:43:00,49.0,41.0,29.51,SSW,209,14.0,-999.0,73,-99.99,,,-99.99,,2013-04-12 09:43:00,
2013-04-12 05:53:00,49.0,44.0,29.50,SW,233,14.0,-999.0,82,-99.99,,,-99.99,,2013-04-12 09:53:00,
2013-04-12 06:03:00,49.0,44.0,29.50,SW,233,14.0,-999.0,82,-99.99,,,-99.99,,2013-04-12 10:03:00,
2013-04-12 06:13:00,49.0,45.0,29.49,SW,233,6.0,-999.0,87,-99.99,,,-99.99,,2013-04-12 10:13:00,
2013-04-12 06:23:00,49.0,45.0,29.49,SW,233,6.0,-999.0,87,-99.99,,,-99.99,,2013-04-12 10:23:00,
2013-04-12 06:34:00,49.0,46.0,29.48,SSE,163,6.0,-999.0,88,-99.99,,,-99.99,,2013-04-12 10:34:00,
2013-04-12 06:43:00,49.0,46.0,29.48,SSE,163,6.0,-999.0,88,-99.99,,,-99.99,,2013-04-12 10:43:00,
2013-04-12 06:53:00,49.0,46.0,29.48,SW,215,5.0,-999.0,89,-99.99,,,-99.99,,2013-04-12 10:53:00,
2013-04-12 07:03:00,50.0,47.0,29.47,SSW,197,7.0,-999.0,89,-99.99,,,-99.99,,2013-04-12 11:03:00,
2013-04-12 07:13:00,50.0,47.0,29.47,SSW,197,7.0,-999.0,89,-99.99,,,-99.99,,2013-04-12 11:13:00,
2013-04-12 07:22:00,50.0,46.0,29.47,South,182,7.0,-999.0,86,-99.99,,,-99.99,,2013-04-12 11:22:00,
2013-04-12 07:32:00,49.0,43.0,29.47,SW,223,9.0,-999.0,81,-99.99,,,-99.99,,2013-04-12 11:32:00,
2013-04-12 07:43:00,49.0,43.0,29.47,SW,223,9.0,-999.0,81,-99.99,,,-99.99,,2013-04-12 11:43:00,
2013-04-12 07:52:00,49.0,41.0,29.48,SSW,209,10.0,-999.0,75,-99.99,,,-99.99,,2013-04-12 11:52:00,
2013-04-12 08:02:00,49.0,40.0,29.49,SSW,205,11.0,-999.0,70,-99.99,,,-99.99,,2013-04-12 12:02:00,
2013-04-12 08:13:00,49.0,40.0,29.49,SSW,205,11.0,-999.0,70,-99.99,,,-99.99,,2013-04-12 12:13:00,
2013-04-12 08:22:00,50.0,41.0,29.49,SW,218,12.0,-999.0,70,-99.99,,,-99.99,,2013-04-12 12:22:00,
2013-04-12 08:33:00,50.0,41.0,29.49,SW,223,12.0,-999.0,71,-99.99,,,-99.99,,2013-04-12 12:33:00,
2013-04-12 08:42:00,50.0,41.0,29.49,SW,223,12.0,-999.0,71,-99.99,,,-99.99,,2013-04-12 12:42:00,
2013-04-12 08:53:00,50.0,42.0,29.50,SSW,208,13.0,-999.0,75,-99.99,,,-99.99,,2013-04-12 12:53:00,
2013-04-12 09:03:00,50.0,41.0,29.50,SSW,213,11.0,-999.0,70,-99.99,,,-99.99,,2013-04-12 13:03:00,
2013-04-12 09:12:00,50.0,41.0,29.50,SSW,213,11.0,-999.0,70,-99.99,,,-99.99,,2013-04-12 13:12:00,
2013-04-12 09:22:00,50.0,40.0,29.51,SSW,212,12.0,-999.0,69,-99.99,,,-99.99,,2013-04-12 13:22:00,
2013-04-12 09:32:00,50.0,40.0,29.51,WSW,240,10.0,-999.0,69,-99.99,,,-99.99,,2013-04-12 13:32:00,
2013-04-12 09:42:00,50.0,40.0,29.51,WSW,240,10.0,-999.0,69,-99.99,,,-99.99,,2013-04-12 13:42:00,
2013-04-12 09:53:00,50.0,39.0,29.51,SSW,205,10.0,-999.0,67,-99.99,,,-99.99,,2013-04-12 13:53:00,
2013-04-12 10:03:00,50.0,39.0,29.51,SSW,197,11.0,-999.0,66,-99.99,,,-99.99,,2013-04-12 14:03:00,
2013-04-12 10:13:00,50.0,39.0,29.51,SSW,197,11.0,-999.0,66,-99.99,,,-99.99,,2013-04-12 14:13:00,
2013-04-12 10:23:00,51.0,40.0,29.52,SW,227,10.0,-999.0,65,-99.99,,,-99.99,,2013-04-12 14:23:00,
2013-04-12 10:33:00,50.0,39.0,29.52,WSW,243,14.0,-999.0,65,-99.99,,,-99.99,,2013-04-12 14:33:00,
2013-04-12 10:42:00,50.0,39.0,29.52,WSW,243,14.0,-999.0,65,-99.99,,,-99.99,,2013-04-12 14:42:00,
2013-04-12 10:54:00,50.0,39.0,29.53,SW,235,13.0,-999.0,65,-99.99,,,-99.99,,2013-04-12 14:54:00,
2013-04-12 11:03:00,50.0,38.0,29.52,SW,229,15.0,-999.0,64,-99.99,,,-99.99,,2013-04-12 15:03:00,
2013-04-12 11:12:00,50.0,38.0,29.52,SW,229,15.0,-999.0,64,-99.99,,,-99.99,,2013-04-12 15:12:00,
2013-04-12 11:22:00,50.0,45.0,29.54,WSW,247,16.0,-999.0,83,-99.99,,,-99.99,,2013-04-12 15:22:00,
2013-04-12 11:33:00,51.0,48.0,29.54,SW,226,17.0,-999.0,90,-99.99,,,-99.99,,2013-04-12 15:33:00,
2013-04-12 11:43:00,51.0,48.0,29.54,SW,226,17.0,-999.0,90,-99.99,,,-99.99,,2013-04-12 15:43:00,
2013-04-12 11:53:00,51.0,48.0,29.54,SW,232,16.0,-999.0,90,-99.99,,,-99.99,,2013-04-12 15:53:00,
2013-04-12 12:04:00,51.0,47.0,29.54,WSW,243,17.0,-999.0,86,-99.99,,,-99.99,,2013-04-12 16:04:00,
2013-04-12 12:13:00,51.0,47.0,29.54,WSW,243,17.0,-999.0,86,-99.99,,,-99.99,,2013-04-12 16:13:00,
2013-04-12 12:23:00,53.0,47.0,29.55,SW,227,18.0,-999.0,80,-99.99,,,-99.99,,2013-04-12 16:23:00,
2013-04-12 12:33:00,54.0,48.0,29.55,SW,214,16.0,-999.0,80,-99.99,,,-99.99,,2013-04-12 16:33:00,
2013-04-12 12:42:00,54.0,48.0,29.55,SW,214,16.0,-999.0,80,-99.99,,,-99.99,,2013-04-12 16:42:00,
2013-04-12 12:53:00,55.0,46.0,29.54,SW,222,21.0,-999.0,72,-99.99,,,-99.99,,2013-04-12 16:53:00,
2013-04-12 13:03:00,55.0,47.0,29.56,WSW,251,19.0,-999.0,73,-99.99,,,-99.99,,2013-04-12 17:03:00,
2013-04-12 13:12:00,55.0,47.0,29.56,WSW,251,19.0,-999.0,73,-99.99,,,-99.99,,2013-04-12 17:12:00,
2013-04-12 13:23:00,53.0,45.0,29.54,WSW,256,15.0,-999.0,74,-99.99,,,-99.99,,2013-04-12 17:23:00,
2013-04-12 13:33:00,55.0,46.0,29.55,SW,223,16.0,-999.0,72,-99.99,,,-99.99,,2013-04-12 17:33:00,
2013-04-12 13:45:00,55.0,46.0,29.55,SW,223,16.0,-999.0,72,-99.99,,,-99.99,,2013-04-12 17:45:00,
2013-04-12 14:07:00,57.0,45.0,29.54,SW,226,17.0,-999.0,65,-99.99,,,-99.99,,2013-04-12 18:07:00,
2013-04-12 14:22:00,56.0,46.0,29.55,SW,234,15.0,-999.0,70,-99.99,,,-99.99,,2013-04-12 18:22:00,
2013-04-12 15:26:00,55.0,42.0,29.55,WSW,257,13.0,-999.0,61,-99.99,,,-99.99,,2013-04-12 19:26:00,
2013-04-12 15:27:00,54.0,42.0,29.56,SW,221,12.0,-999.0,64,-99.99,,,-99.99,,2013-04-12 19:27:00,
2013-04-12 15:33:00,56.0,42.0,29.55,WSW,249,16.0,-999.0,59,-99.99,,,-99.99,,2013-04-12 19:33:00,
2013-04-12 15:43:00,56.0,42.0,29.55,WSW,249,16.0,-999.0,59,-99.99,,,-99.99,,2013-04-12 19:43:00,
2013-04-12 15:53:00,54.0,42.0,29.56,SW,219,15.0,-999.0,64,-99.99,,,-99.99,,2013-04-12 19:53:00,
2013-04-12 16:02:00,56.0,43.0,29.56,WSW,251,12.0,-999.0,62,-99.99,,,-99.99,,2013-04-12 20:02:00,
2013-04-12 16:12:00,56.0,43.0,29.56,WSW,251,12.0,-999.0,62,-99.99,,,-99.99,,2013-04-12 20:12:00,
2013-04-12 16:22:00,56.0,44.0,29.56,SW,232,12.0,-999.0,64,-99.99,,,-99.99,,2013-04-12 20:22:00,
2013-04-12 16:32:00,54.0,41.0,29.56,SW,227,15.0,-999.0,62,-99.99,,,-99.99,,2013-04-12 20:32:00,
2013-04-12 16:42:00,54.0,41.0,29.56,SW,227,15.0,-999.0,62,-99.99,,,-99.99,,2013-04-12 20:42:00,
2013-04-12 16:52:00,56.0,41.0,29.56,SSW,212,13.0,-999.0,57,-99.99,,,-99.99,,2013-04-12 20:52:00,
2013-04-12 17:02:00,56.0,40.0,29.56,SW,233,14.0,-999.0,54,-99.99,,,-99.99,,2013-04-12 21:02:00,
2013-04-12 17:12:00,56.0,40.0,29.56,SW,233,14.0,-999.0,54,-99.99,,,-99.99,,2013-04-12 21:12:00,
2013-04-12 17:22:00,55.0,39.0,29.57,WSW,246,14.0,-999.0,55,-99.99,,,-99.99,,2013-04-12 21:22:00,
2013-04-12 17:33:00,56.0,38.0,29.57,WSW,238,13.0,-999.0,50,-99.99,,,-99.99,,2013-04-12 21:33:00,
2013-04-12 17:43:00,56.0,38.0,29.57,WSW,238,13.0,-999.0,50,-99.99,,,-99.99,,2013-04-12 21:43:00,
2013-04-12 17:53:00,55.0,38.0,29.58,SW,215,15.0,-999.0,53,-99.99,,,-99.99,,2013-04-12 21:53:00,
2013-04-12 18:02:00,54.0,37.0,29.58,West,261,13.0,-999.0,52,-99.99,,,-99.99,,2013-04-12 22:02:00,
2013-04-12 18:13:00,54.0,37.0,29.58,West,261,13.0,-999.0,52,-99.99,,,-99.99,,2013-04-12 22:13:00,
2013-04-12 18:22:00,55.0,39.0,29.59,SW,214,11.0,-999.0,54,-99.99,,,-99.99,,2013-04-12 22:22:00,
2013-04-12 18:33:00,52.0,37.0,29.59,West,263,14.0,-999.0,57,-99.99,,,-99.99,,2013-04-12 22:33:00,
2013-04-12 18:42:00,52.0,37.0,29.59,West,263,14.0,-999.0,57,-99.99,,,-99.99,,2013-04-12 22:42:00,
2013-04-12 18:52:00,52.0,38.0,29.60,SW,232,12.0,-999.0,59,-99.99,,,-99.99,,2013-04-12 22:52:00,
2013-04-12 19:04:00,50.0,37.0,29.61,SW,219,14.0,-999.0,61,-99.99,,,-99.99,,2013-04-12 23:04:00,
2013-04-12 19:12:00,50.0,37.0,29.61,SW,219,14.0,-999.0,61,-99.99,,,-99.99,,2013-04-12 23:12:00,
2013-04-12 19:22:00,49.0,35.0,29.61,WSW,238,15.0,-999.0,59,-99.99,,,-99.99,,2013-04-12 23:22:00,
2013-04-12 19:32:00,48.0,34.0,29.62,West,279,13.0,-999.0,59,-99.99,,,-99.99,,2013-04-12 23:32:00,
2013-04-12 19:42:00,48.0,34.0,29.62,West,279,13.0,-999.0,59,-99.99,,,-99.99,,2013-04-12 23:42:00,
2013-04-12 19:52:00,46.0,34.0,29.62,SW,236,14.0,-999.0,63,-99.99,,,-99.99,,2013-04-12 23:52:00,
2013-04-12 20:02:00,45.0,34.0,29.63,SW,232,10.0,-999.0,65,-99.99,,,-99.99,,2013-04-13 00:02:00,
2013-04-12 20:12:00,45.0,34.0,29.63,SW,232,10.0,-999.0,65,-99.99,,,-99.99,,2013-04-13 00:12:00,
2013-04-12 20:22:00,44.0,34.0,29.63,SW,225,12.0,-999.0,68,-99.99,,,-99.99,,2013-04-13 00:22:00,
2013-04-12 20:32:00,44.0,35.0,29.64,SW,233,10.0,-999.0,70,-99.99,,,-99.99,,2013-04-13 00:32:00,
2013-04-12 20:42:00,44.0,35.0,29.64,SW,233,10.0,-999.0,70,-99.99,,,-99.99,,2013-04-13 00:42:00,
2013-04-12 20:52:00,43.0,34.0,29.64,SW,232,9.0,-999.0,71,-99.99,,,-99.99,,2013-04-13 00:52:00,
2013-04-12 21:02:00,43.0,34.0,29.65,WSW,242,10.0,-999.0,70,-99.99,,,-99.99,,2013-04-13 01:02:00,
2013-04-12 21:13:00,43.0,34.0,29.65,WSW,242,10.0,-999.0,70,-99.99,,,-99.99,,2013-04-13 01:13:00,
2013-04-12 21:22:00,42.0,34.0,29.65,West,260,7.0,-999.0,73,-99.99,,,-99.99,,2013-04-13 01:22:00,
2013-04-12 21:33:00,41.0,33.0,29.66,WSW,257,8.0,-999.0,74,-99.99,,,-99.99,,2013-04-13 01:33:00,
2013-04-12 21:43:00,41.0,33.0,29.66,WSW,257,8.0,-999.0,74,-99.99,,,-99.99,,2013-04-13 01:43:00,
2013-04-12 21:52:00,41.0,33.0,29.67,WSW,253,9.0,-999.0,74,-99.99,,,-99.99,,2013-04-13 01:52:00,
2013-04-12 22:02:00,40.0,33.0,29.69,WSW,257,9.0,-999.0,76,-99.99,,,-99.99,,2013-04-13 02:02:00,
2013-04-12 22:12:00,40.0,33.0,29.69,WSW,257,9.0,-999.0,76,-99.99,,,-99.99,,2013-04-13 02:12:00,
2013-04-12 22:23:00,39.0,33.0,29.70,WNW,286,8.0,-999.0,78,-99.99,,,-99.99,,2013-04-13 02:23:00,
2013-04-12 22:32:00,38.0,32.0,29.72,WSW,246,9.0,-999.0,79,-99.99,,,-99.99,,2013-04-13 02:32:00,
2013-04-12 22:42:00,38.0,32.0,29.72,WSW,246,9.0,-999.0,79,-99.99,,,-99.99,,2013-04-13 02:42:00,
2013-04-12 22:53:00,37.0,31.0,29.72,WSW,250,12.0,-999.0,80,-99.99,,,-99.99,,2013-04-13 02:53:00,
2013-04-12 23:02:00,36.0,31.0,29.72,West,267,14.0,-999.0,81,-99.99,,,-99.99,,2013-04-13 03:02:00,
2013-04-12 23:12:00,36.0,31.0,29.72,West,267,14.0,-999.0,81,-99.99,,,-99.99,,2013-04-13 03:12:00,
2013-04-12 23:23:00,35.0,30.0,29.73,West,269,13.0,-999.0,81,-99.99,,,-99.99,,2013-04-13 03:23:00,
2013-04-12 23:33:00,35.0,30.0,29.73,SW,232,15.0,-999.0,81,-99.99,,,-99.99,,2013-04-13 03:33:00,
2013-04-12 23:43:00,35.0,30.0,29.73,SW,232,15.0,-999.0,81,-99.99,,,-99.99,,2013-04-13 03:43:00,
2013-04-12 23:53:00,35.0,30.0,29.73,SW,219,12.0,-999.0,81,-99.99,,,-99.99,,2013-04-13 03:53:00,